Time;durP1;ratioP1;P1;durP2;ratioP2;P2;SDS_P1;SDS_P2;PMS_P1;PMS_P2;Temp;Humidity;BMP_temperature;BMP_pressure;BME280_temperature;BME280_humidity;BME280_pressure;Samples;Min_cycle;Max_cycle;Signal;HPM_P1;HPM_P2
2023/07/25 00:00:05;;;;;;;4.47;2.05;;;;;;;27.59;48.12;99132.53;4898831;29;20111;-74
2023/07/25 00:02:31;;;;;;;4.65;2.35;;;;;;;27.58;48.01;99140.72;4898959;29;20044;-74
2023/07/25 00:04:56;;;;;;;3.85;2.20;;;;;;;27.58;48.00;99151.44;4898278;29;20017;-73
2023/07/25 00:07:22;;;;;;;4.68;2.25;;;;;;;27.56;47.69;99148.84;4886964;29;20036;-73
2023/07/25 00:09:47;;;;;;;5.28;2.08;;;;;;;27.57;47.68;99147.88;4884476;29;20072;-74
2023/07/25 00:12:12;;;;;;;5.47;2.28;;;;;;;27.56;47.90;99143.50;4898533;29;20493;-74
2023/07/25 00:14:38;;;;;;;3.92;2.00;;;;;;;27.56;48.14;99150.72;4898453;29;20020;-73
2023/07/25 00:17:03;;;;;;;5.90;2.20;;;;;;;27.56;47.81;99137.31;4898595;29;20064;-73
2023/07/25 00:19:29;;;;;;;4.43;2.00;;;;;;;27.56;48.14;99142.66;4898609;29;20374;-73
2023/07/25 00:21:54;;;;;;;3.60;1.75;;;;;;;27.54;47.67;99142.81;4898512;29;20181;-74
2023/07/25 00:24:20;;;;;;;5.15;2.00;;;;;;;27.54;47.80;99140.13;4887753;29;20028;-73
2023/07/25 00:26:45;;;;;;;6.38;2.65;;;;;;;27.54;48.12;99140.13;4891827;29;20037;-74
2023/07/25 00:29:11;;;;;;;5.28;2.10;;;;;;;27.51;48.23;99137.75;4885558;29;20033;-73
2023/07/25 00:31:36;;;;;;;3.75;1.70;;;;;;;27.52;48.16;99138.56;4898203;29;20029;-74
2023/07/25 00:34:03;;;;;;;4.78;2.58;;;;;;;27.52;48.33;99130.53;4898263;29;20112;-73
2023/07/25 00:36:29;;;;;;;5.10;2.10;;;;;;;27.51;48.26;99124.34;4898386;29;20060;-73
2023/07/25 00:38:54;;;;;;;6.00;2.20;;;;;;;27.51;48.12;99123.50;4892629;29;20442;-74
2023/07/25 00:41:20;;;;;;;4.13;1.92;;;;;;;27.51;48.11;99127.03;4889145;29;20040;-74
2023/07/25 00:43:45;;;;;;;4.70;2.08;;;;;;;27.51;48.26;99124.34;4895400;29;20024;-73
2023/07/25 00:46:11;;;;;;;5.35;2.05;;;;;;;27.51;48.18;99124.34;4887774;29;20490;-74
2023/07/25 00:48:36;;;;;;;5.22;1.95;;;;;;;27.51;48.25;99129.72;4892639;29;20081;-73
2023/07/25 00:51:03;;;;;;;5.15;2.20;;;;;;;27.52;48.08;99126.03;4882889;29;20499;-74
2023/07/25 00:53:29;;;;;;;4.38;2.15;;;;;;;27.50;48.20;99117.28;4895846;29;20036;-74
2023/07/25 00:55:55;;;;;;;4.25;2.03;;;;;;;27.48;48.07;99124.63;4883518;29;20104;-73
2023/07/25 00:58:21;;;;;;;4.97;1.98;;;;;;;27.48;47.94;99127.31;4885040;29;20477;-74
2023/07/25 01:00:46;;;;;;;5.53;2.08;;;;;;;27.49;47.79;99126.31;4897754;29;20032;-74
2023/07/25 01:03:12;;;;;;;4.72;1.95;;;;;;;27.46;48.20;99126.63;4897649;29;20024;-73
2023/07/25 01:05:45;;;;;;;7.05;2.45;;;;;;;27.45;47.89;99127.63;4895874;29;20039;-74
2023/07/25 01:08:10;;;;;;;4.20;1.60;;;;;;;27.46;48.22;99121.25;4897287;29;20037;-74
2023/07/25 01:10:38;;;;;;;4.68;1.95;;;;;;;27.45;48.32;99119.56;4885967;29;20025;-74
2023/07/25 01:13:05;;;;;;;4.68;1.83;;;;;;;27.44;47.97;99113.34;4890298;29;20040;-74
2023/07/25 01:15:31;;;;;;;4.78;1.90;;;;;;;27.44;48.20;99123.22;4896995;29;20064;-74
2023/07/25 01:17:56;;;;;;;3.40;1.42;;;;;;;27.40;47.95;99116.47;4897733;29;20040;-73
2023/07/25 01:20:23;;;;;;;4.13;1.77;;;;;;;27.40;47.94;99116.47;4897131;29;20041;-73
2023/07/25 01:22:50;;;;;;;4.32;1.90;;;;;;;27.41;48.17;99110.13;4897104;29;20036;-73
2023/07/25 01:25:16;;;;;;;4.88;1.80;;;;;;;27.43;47.85;99113.50;4897506;29;20081;-74
2023/07/25 01:27:41;;;;;;;4.57;2.00;;;;;;;27.41;48.01;99113.63;4885745;29;20067;-73
2023/07/25 01:30:07;;;;;;;5.03;1.70;;;;;;;27.39;47.92;99109.41;4891006;29;20040;-73
2023/07/25 01:32:33;;;;;;;3.95;1.60;;;;;;;27.38;48.17;99119.28;4879664;29;20037;-74
2023/07/25 01:34:59;;;;;;;3.88;1.65;;;;;;;27.37;48.16;99114.06;4897165;29;20031;-73
2023/07/25 01:37:24;;;;;;;6.20;1.77;;;;;;;27.34;48.02;99116.06;4896765;29;20491;-74
2023/07/25 01:39:50;;;;;;;5.07;1.90;;;;;;;27.38;47.88;99113.09;4888037;29;20081;-74
2023/07/25 01:42:16;;;;;;;4.55;1.98;;;;;;;27.36;48.13;99105.22;4894992;29;20112;-73
2023/07/25 01:44:41;;;;;;;3.92;1.63;;;;;;;27.33;47.90;99106.34;4896805;29;20037;-73
2023/07/25 01:47:06;;;;;;;4.13;1.65;;;;;;;27.34;48.21;99101.81;4894179;29;20032;-73
2023/07/25 01:49:32;;;;;;;4.95;1.67;;;;;;;27.32;47.98;99096.59;4895073;29;20060;-73
2023/07/25 01:51:57;;;;;;;4.60;1.83;;;;;;;27.31;47.99;99097.59;4890791;29;20108;-73
2023/07/25 01:54:23;;;;;;;4.07;1.70;;;;;;;27.35;47.91;99098.13;4896699;29;20032;-73
2023/07/25 01:56:48;;;;;;;5.80;1.73;;;;;;;27.32;47.93;99088.56;4892228;29;20080;-74
2023/07/25 01:59:14;;;;;;;4.20;1.83;;;;;;;27.31;47.88;99096.75;4896662;29;20050;-73
2023/07/25 02:01:39;;;;;;;3.88;1.50;;;;;;;27.31;48.15;99086.03;4896783;29;20049;-74
2023/07/25 02:04:05;;;;;;;3.67;1.73;;;;;;;27.31;48.00;99086.88;4892135;29;20252;-73
2023/07/25 02:06:30;;;;;;;4.75;1.98;;;;;;;27.32;48.20;99083.19;4896419;29;20028;-73
2023/07/25 02:08:55;;;;;;;4.18;1.55;;;;;;;27.30;47.98;99090.53;4896383;29;20055;-73
2023/07/25 02:11:21;;;;;;;4.60;1.95;;;;;;;27.27;48.01;99085.50;4896496;29;20031;-73
2023/07/25 02:13:46;;;;;;;4.13;1.55;;;;;;;27.26;48.21;99073.06;4896606;29;20040;-74
2023/07/25 02:16:11;;;;;;;4.15;1.58;;;;;;;27.25;48.18;99079.41;4896569;29;20053;-73
2023/07/25 02:18:37;;;;;;;4.20;1.50;;;;;;;27.28;47.96;99080.97;4896032;29;20024;-74
2023/07/25 02:21:02;;;;;;;6.00;1.70;;;;;;;27.26;47.88;99078.41;4896217;29;20081;-74
2023/07/25 02:23:28;;;;;;;4.25;1.80;;;;;;;27.25;48.13;99074.06;4891848;29;20029;-73
2023/07/25 02:25:53;;;;;;;4.18;1.80;;;;;;;27.24;47.92;99074.19;4895799;29;20454;-73
2023/07/25 02:28:19;;;;;;;4.35;1.55;;;;;;;27.26;47.82;99073.06;4900165;29;20052;-73
2023/07/25 02:30:46;;;;;;;4.38;1.90;;;;;;;27.25;47.79;99071.38;4900074;29;20039;-73
2023/07/25 02:33:11;;;;;;;4.95;1.92;;;;;;;27.24;47.86;99069.69;4900148;29;20537;-74
2023/07/25 02:35:37;;;;;;;4.72;1.60;;;;;;;27.20;48.00;99057.56;4899807;29;20037;-73
2023/07/25 02:42:17;;;;;;;5.25;1.60;;;;;;;27.23;48.19;99065.34;4890519;29;20114;-75
2023/07/25 02:44:42;;;;;;;4.90;1.65;;;;;;;27.22;47.73;99060.97;4892574;29;20060;-74
2023/07/25 02:47:08;;;;;;;4.57;1.65;;;;;;;27.19;47.67;99056.75;4899941;29;20482;-74
2023/07/25 02:49:34;;;;;;;4.20;1.63;;;;;;;27.17;47.80;99055.19;4894994;29;20077;-73
2023/07/25 02:51:59;;;;;;;5.20;1.67;;;;;;;27.16;48.08;99053.50;4895644;29;20024;-74
2023/07/25 02:54:24;;;;;;;3.17;1.30;;;;;;;27.14;47.87;99052.78;4895558;29;20032;-73
2023/07/25 02:56:50;;;;;;;3.05;1.27;;;;;;;27.15;47.84;99049.97;4899892;29;20473;-74
2023/07/25 02:59:15;;;;;;;4.40;1.67;;;;;;;27.19;48.11;99055.88;4899736;29;20028;-73
2023/07/25 03:01:41;;;;;;;5.60;1.83;;;;;;;27.16;48.09;99050.84;4898204;29;20024;-73
2023/07/25 03:04:06;;;;;;;5.68;1.67;;;;;;;27.14;47.67;99056.34;4894903;29;20048;-74
2023/07/25 03:06:32;;;;;;;2.53;1.42;;;;;;;27.08;48.00;99063.09;4895235;29;20028;-74
2023/07/25 03:08:57;;;;;;;4.18;1.42;;;;;;;27.07;47.98;99056.06;4899356;29;20048;-74
2023/07/25 03:11:23;;;;;;;4.63;1.90;;;;;;;27.11;47.92;99061.13;4899474;29;20040;-74
2023/07/25 03:13:48;;;;;;;4.22;1.40;;;;;;;27.10;48.20;99054.09;4899621;29;20084;-74
2023/07/25 03:16:13;;;;;;;3.58;1.80;;;;;;;27.11;48.06;99053.09;4895122;29;20481;-74
2023/07/25 03:18:39;;;;;;;3.88;1.52;;;;;;;27.10;48.12;99041.53;4899023;29;20050;-74
2023/07/25 03:21:04;;;;;;;5.50;2.05;;;;;;;27.08;48.00;99044.34;4899398;29;20029;-73
2023/07/25 03:23:29;;;;;;;3.33;1.50;;;;;;;27.08;48.12;99043.53;4897933;29;20039;-73
2023/07/25 03:25:55;;;;;;;3.58;1.40;;;;;;;27.12;48.05;99044.06;4899515;29;20411;-73
2023/07/25 03:28:21;;;;;;;5.18;1.58;;;;;;;27.07;47.83;99050.69;4894756;29;20059;-74
2023/07/25 03:30:46;;;;;;;4.43;1.50;;;;;;;27.08;47.67;99049.69;4894659;29;20051;-73
2023/07/25 03:33:11;;;;;;;4.28;1.77;;;;;;;27.08;47.98;99044.34;4898646;29;20133;-74
2023/07/25 03:35:37;;;;;;;3.53;1.55;;;;;;;27.09;47.63;99050.56;4898998;29;20048;-74
2023/07/25 03:38:02;;;;;;;4.43;1.77;;;;;;;27.07;47.98;99042.66;4894553;29;20029;-74
2023/07/25 03:40:28;;;;;;;4.00;1.73;;;;;;;27.08;48.00;99044.34;4894765;29;20033;-74
2023/07/25 03:42:53;;;;;;;3.42;1.52;;;;;;;27.06;47.92;99051.69;4898545;29;20039;-73
2023/07/25 03:45:18;;;;;;;4.28;1.80;;;;;;;27.05;48.05;99046.47;4899016;29;20069;-74
2023/07/25 03:47:44;;;;;;;4.70;1.98;;;;;;;27.08;47.88;99043.53;4893994;29;20460;-73
2023/07/25 03:50:09;;;;;;;4.50;1.55;;;;;;;27.04;47.94;99052.81;4898605;29;20028;-73
2023/07/25 03:52:34;;;;;;;4.10;1.45;;;;;;;27.01;47.88;99045.91;4899019;29;20024;-73
2023/07/25 03:55:00;;;;;;;3.90;1.70;;;;;;;27.00;47.66;99054.94;4898720;29;20107;-73
2023/07/25 03:57:25;;;;;;;5.03;1.80;;;;;;;27.00;47.78;99054.94;4898642;29;20027;-74
2023/07/25 03:59:51;;;;;;;5.55;2.00;;;;;;;27.01;47.80;99064.66;4898747;29;20120;-74
2023/07/25 04:02:16;;;;;;;4.85;1.90;;;;;;;27.04;47.84;99072.41;4893873;29;20020;-73
2023/07/25 04:04:41;;;;;;;4.28;1.67;;;;;;;27.00;47.88;99073.69;4898648;29;20024;-74
2023/07/25 04:07:07;;;;;;;4.28;1.67;;;;;;;27.04;47.88;99069.75;4897443;29;20043;-73
2023/07/25 04:09:32;;;;;;;6.95;2.22;;;;;;;27.04;47.70;99063.53;4897768;29;20073;-74
2023/07/25 04:11:57;;;;;;;5.32;1.90;;;;;;;27.00;47.81;99067.47;4898263;29;20024;-73
2023/07/25 04:14:23;;;;;;;5.55;1.80;;;;;;;26.96;47.92;99066.91;4897210;29;20031;-74
2023/07/25 04:16:48;;;;;;;5.90;1.80;;;;;;;26.94;47.95;99067.06;4897927;29;20028;-74
2023/07/25 04:19:14;;;;;;;6.78;2.00;;;;;;;26.94;47.53;99067.06;4897314;29;20063;-74
2023/07/25 04:21:39;;;;;;;8.38;2.30;;;;;;;26.95;47.71;99070.59;4894895;29;20501;-73
2023/07/25 04:24:05;;;;;;;4.90;2.03;;;;;;;26.95;47.48;99067.91;4894279;29;20040;-74
2023/07/25 04:26:31;;;;;;;6.95;2.20;;;;;;;26.91;47.81;99075.38;4898168;29;20028;-74
2023/07/25 04:28:56;;;;;;;7.93;2.08;;;;;;;26.89;47.66;99063.09;4897664;29;20039;-73
2023/07/25 04:31:21;;;;;;;6.70;2.45;;;;;;;26.90;47.46;99062.09;4894984;29;20021;-73
2023/07/25 04:33:47;;;;;;;6.57;2.38;;;;;;;26.90;47.86;99062.09;4895030;29;20044;-73
2023/07/25 04:36:13;;;;;;;5.63;2.00;;;;;;;26.87;47.50;99067.75;4898056;29;20065;-73
2023/07/25 04:38:38;;;;;;;4.00;1.73;;;;;;;26.88;47.63;99072.13;4897861;29;20029;-73
2023/07/25 04:41:04;;;;;;;5.55;1.98;;;;;;;26.91;47.81;99075.38;4896115;29;20071;-73
2023/07/25 04:43:29;;;;;;;4.47;1.98;;;;;;;26.90;47.79;99073.66;4895138;29;20039;-74
2023/07/25 04:45:54;;;;;;;7.55;2.28;;;;;;;26.87;47.61;99067.75;4897380;29;20489;-74
2023/07/25 04:48:20;;;;;;;5.95;2.30;;;;;;;26.87;47.78;99073.94;4897282;29;20039;-73
2023/07/25 04:50:45;;;;;;;6.63;2.10;;;;;;;26.84;47.87;99078.72;4892975;29;20518;-73
2023/07/25 04:53:11;;;;;;;7.22;1.90;;;;;;;26.85;47.79;99088.44;4897720;29;20033;-73
2023/07/25 04:55:36;;;;;;;5.90;1.80;;;;;;;26.84;47.73;99082.25;4895530;29;20501;-74
2023/07/25 04:58:02;;;;;;;7.13;2.42;;;;;;;26.86;47.48;99087.44;4897441;29;20032;-74
2023/07/25 05:00:30;;;;;;;6.55;2.00;;;;;;;26.87;47.90;99099.88;4896982;29;20048;-74
2023/07/25 05:02:55;;;;;;;4.65;1.75;;;;;;;26.84;47.75;99106.34;4897045;29;20171;-74
2023/07/25 05:05:21;;;;;;;5.28;2.28;;;;;;;26.81;47.89;99094.09;4893726;29;20397;-73
2023/07/25 05:07:46;;;;;;;5.10;2.00;;;;;;;26.85;47.57;99099.16;4897596;29;20040;-73
2023/07/25 05:10:11;;;;;;;6.47;2.25;;;;;;;26.84;47.84;99110.84;4897241;29;20084;-74
2023/07/25 05:12:37;;;;;;;5.18;1.80;;;;;;;26.86;47.58;99114.22;4892920;29;20120;-74
2023/07/25 05:15:03;;;;;;;6.15;2.28;;;;;;;26.84;47.71;99121.56;4892692;29;20032;-74
2023/07/25 05:17:29;;;;;;;5.35;1.83;;;;;;;26.80;47.92;99124.53;4893247;29;20084;-73
2023/07/25 05:19:54;;;;;;;4.78;2.00;;;;;;;26.80;47.89;99124.53;4897302;29;20020;-74
2023/07/25 05:22:20;;;;;;;5.88;2.08;;;;;;;26.83;47.74;99119.88;4896416;29;20513;-74
2023/07/25 05:24:45;;;;;;;7.45;2.25;;;;;;;26.78;47.96;99117.63;4897017;29;20386;-71
2023/07/25 05:27:10;;;;;;;5.35;1.80;;;;;;;26.81;47.88;99122.69;4895739;29;20109;-74
2023/07/25 05:29:36;;;;;;;5.78;1.73;;;;;;;26.78;47.78;99134.50;4893681;29;20103;-73
2023/07/25 05:32:01;;;;;;;5.65;1.90;;;;;;;26.79;47.61;99124.66;4896910;29;20047;-74
2023/07/25 05:34:27;;;;;;;4.85;1.85;;;;;;;26.81;47.57;99123.53;4895757;29;20064;-73
2023/07/25 05:36:52;;;;;;;5.78;1.90;;;;;;;26.80;47.67;99127.22;4896647;29;20031;-73
2023/07/25 05:39:17;;;;;;;6.32;2.08;;;;;;;26.83;47.46;99133.25;4892690;29;20025;-73
2023/07/25 05:41:43;;;;;;;5.20;1.80;;;;;;;26.84;47.74;99140.28;4896900;29;20025;-73
2023/07/25 05:44:09;;;;;;;5.93;2.00;;;;;;;26.83;47.86;99142.16;4896453;29;20025;-73
2023/07/25 05:46:34;;;;;;;6.32;2.00;;;;;;;26.85;47.92;99150.00;4889339;29;20024;-73
2023/07/25 05:48:59;;;;;;;4.10;1.83;;;;;;;26.85;47.49;99148.19;4896710;29;20049;-74
2023/07/25 05:51:25;;;;;;;6.50;2.17;;;;;;;26.83;47.76;99146.63;4891072;29;20083;-74
2023/07/25 05:53:50;;;;;;;8.13;1.60;;;;;;;26.83;47.50;99154.66;4896832;29;20025;-73
2023/07/25 05:56:15;;;;;;;5.13;2.00;;;;;;;26.84;47.34;99159.03;4895188;29;20085;-73
2023/07/25 05:58:41;;;;;;;3.85;1.67;;;;;;;26.80;47.53;99153.97;4896528;29;20020;-74
2023/07/25 06:01:06;;;;;;;4.97;1.58;;;;;;;26.84;47.51;99159.03;4896311;29;20024;-73
2023/07/25 06:03:32;;;;;;;4.90;1.55;;;;;;;26.79;48.03;99164.81;4896658;29;20028;-73
2023/07/25 06:05:57;;;;;;;4.38;1.60;;;;;;;26.79;47.85;99168.31;4896713;29;20032;-74
2023/07/25 06:08:23;;;;;;;5.63;1.85;;;;;;;26.79;47.67;99167.50;4892264;29;20041;-74
2023/07/25 06:10:48;;;;;;;5.72;2.15;;;;;;;26.78;47.66;99176.50;4896241;29;20048;-73
2023/07/25 06:13:14;;;;;;;6.38;1.80;;;;;;;26.77;47.58;99170.28;4892359;29;20063;-73
2023/07/25 06:15:39;;;;;;;5.05;2.00;;;;;;;26.76;47.74;99165.94;4892566;29;20609;-74
2023/07/25 06:18:05;;;;;;;5.47;1.77;;;;;;;26.78;47.54;99177.34;4896507;29;20511;-74
2023/07/25 06:20:34;;;;;;;4.85;1.88;;;;;;;26.77;47.75;99175.66;4896292;29;20031;-74
2023/07/25 06:23:00;;;;;;;5.38;1.52;;;;;;;26.77;47.75;99186.34;4895745;29;20108;-74
2023/07/25 06:25:26;;;;;;;4.30;1.60;;;;;;;26.80;47.94;99190.59;4891119;29;20041;-74
2023/07/25 06:27:52;;;;;;;4.45;1.70;;;;;;;26.76;47.69;99195.38;4896428;29;20541;-74
2023/07/25 06:30:17;;;;;;;4.88;1.77;;;;;;;26.77;47.65;99205.09;4893100;29;20111;-73
2023/07/25 06:32:42;;;;;;;5.55;1.80;;;;;;;26.77;47.87;99202.41;4896490;29;20027;-74
2023/07/25 06:35:08;;;;;;;4.40;1.75;;;;;;;26.80;47.60;99203.97;4896369;29;20039;-73
2023/07/25 06:37:36;;;;;;;4.53;1.55;;;;;;;26.79;47.38;99211.13;4896242;29;20103;-74
2023/07/25 06:40:01;;;;;;;5.68;1.65;;;;;;;26.76;47.72;99202.53;4895892;29;20033;-74
2023/07/25 06:42:30;;;;;;;5.15;1.80;;;;;;;26.76;47.90;99211.44;4896233;29;20036;-73
2023/07/25 06:44:56;;;;;;;4.32;1.55;;;;;;;26.74;47.54;99224.13;4895911;29;20032;-74
2023/07/25 06:47:21;;;;;;;4.15;1.83;;;;;;;26.75;47.81;99209.75;4892275;29;20052;-74
2023/07/25 06:49:47;;;;;;;3.75;1.67;;;;;;;26.74;47.96;99208.06;4895638;29;20029;-74
2023/07/25 06:52:12;;;;;;;6.07;1.88;;;;;;;26.74;47.60;99213.41;4891895;29;20037;-73
2023/07/25 06:54:38;;;;;;;5.13;1.90;;;;;;;26.74;47.62;99213.41;4895693;29;20272;-74
2023/07/25 06:57:04;;;;;;;5.15;1.77;;;;;;;26.73;47.99;99208.19;4895179;29;20399;-74
2023/07/25 06:59:29;;;;;;;4.32;1.88;;;;;;;26.74;47.90;99208.06;4896083;29;20033;-74
2023/07/25 07:01:56;;;;;;;5.80;1.50;;;;;;;26.74;47.85;99210.72;4894750;29;20020;-73
2023/07/25 07:04:21;;;;;;;5.55;1.48;;;;;;;26.72;47.59;99209.19;4896186;29;20025;-74
2023/07/25 07:06:47;;;;;;;4.80;1.60;;;;;;;26.71;47.84;99205.66;4894866;29;20082;-74
2023/07/25 07:09:13;;;;;;;4.75;1.45;;;;;;;26.73;47.83;99217.03;4895599;29;20135;-73
2023/07/25 07:11:39;;;;;;;5.72;2.17;;;;;;;26.74;47.75;99218.75;4896053;29;20028;-74
2023/07/25 07:14:05;;;;;;;4.78;1.60;;;;;;;26.74;47.73;99218.75;4899384;29;20021;-74
2023/07/25 07:16:30;;;;;;;5.93;1.77;;;;;;;26.72;47.81;99220.72;4899351;29;20394;-74
2023/07/25 07:18:55;;;;;;;4.32;1.48;;;;;;;26.75;47.35;99224.94;4899022;29;20103;-73
2023/07/25 07:21:21;;;;;;;5.53;1.90;;;;;;;26.74;47.39;99221.44;4899468;29;20029;-74
2023/07/25 07:23:46;;;;;;;5.82;2.28;;;;;;;26.74;47.64;99229.47;4898870;29;20497;-73
2023/07/25 07:26:12;;;;;;;4.43;1.83;;;;;;;26.74;47.57;99231.28;4899280;29;20024;-73
2023/07/25 07:28:37;;;;;;;4.93;2.05;;;;;;;26.71;47.59;99229.72;4899387;29;20103;-74
2023/07/25 07:31:04;;;;;;;4.20;1.60;;;;;;;26.72;47.34;99231.41;4899175;29;20469;-74
2023/07/25 07:33:30;;;;;;;4.28;1.55;;;;;;;26.73;47.48;99227.75;4898541;29;20049;-74
2023/07/25 07:35:55;;;;;;;5.82;2.00;;;;;;;26.73;47.64;99230.44;4899115;29;20068;-74
2023/07/25 07:38:21;;;;;;;5.47;1.70;;;;;;;26.74;47.45;99226.78;4898350;29;20025;-74
2023/07/25 07:40:46;;;;;;;7.13;2.15;;;;;;;26.76;47.25;99238.19;4898467;29;20163;-73
2023/07/25 07:43:14;;;;;;;5.32;1.95;;;;;;;26.75;47.53;99235.66;4899250;29;20050;-73
2023/07/25 07:45:39;;;;;;;5.43;1.73;;;;;;;26.74;47.68;99234.81;4899093;29;20028;-73
2023/07/25 07:48:05;;;;;;;4.90;2.28;;;;;;;26.74;47.38;99228.63;4897536;29;20409;-73
2023/07/25 07:50:33;;;;;;;6.03;2.17;;;;;;;26.73;47.50;99229.59;4897591;29;20047;-72
2023/07/25 07:52:58;;;;;;;6.05;1.90;;;;;;;26.74;47.44;99226.78;4898248;29;20021;-73
2023/07/25 07:55:24;;;;;;;5.57;1.73;;;;;;;26.71;47.62;99224.38;4898736;29;20025;-74
2023/07/25 07:57:49;;;;;;;5.65;1.95;;;;;;;26.74;47.64;99229.47;4898754;29;20031;-73
2023/07/25 08:00:15;;;;;;;5.63;1.98;;;;;;;26.76;47.31;99227.50;4891755;29;20067;-74
2023/07/25 08:02:42;;;;;;;6.68;1.98;;;;;;;26.76;47.26;99226.63;4896821;29;20489;-74
2023/07/25 08:05:08;;;;;;;6.13;1.75;;;;;;;26.76;47.54;99235.53;4893415;29;20032;-73
2023/07/25 08:07:34;;;;;;;6.03;1.85;;;;;;;26.78;47.65;99232.72;4897850;29;20036;-73
2023/07/25 08:09:59;;;;;;;4.47;1.73;;;;;;;26.78;47.15;99230.88;4898204;29;20044;-74
2023/07/25 08:12:25;;;;;;;5.90;2.08;;;;;;;26.76;47.25;99243.56;4894864;29;20028;-74
2023/07/25 08:14:51;;;;;;;4.55;2.17;;;;;;;26.77;47.43;99234.53;4898363;29;20025;-74
2023/07/25 08:17:17;;;;;;;4.88;2.00;;;;;;;26.76;47.54;99243.56;4898494;29;20027;-73
2023/07/25 08:19:43;;;;;;;4.93;2.00;;;;;;;26.76;47.20;99237.34;4897973;29;20028;-73
2023/07/25 08:22:11;;;;;;;4.38;1.70;;;;;;;26.77;47.09;99233.66;4887744;29;20478;-73
2023/07/25 08:24:38;;;;;;;5.97;1.85;;;;;;;26.77;47.30;99241.69;4897556;29;20051;-74
2023/07/25 08:27:03;;;;;;;5.90;1.77;;;;;;;26.76;47.25;99235.53;4896548;29;20080;-73
2023/07/25 08:29:29;;;;;;;5.97;1.80;;;;;;;26.76;47.25;99234.66;4890736;29;20427;-74
2023/07/25 08:31:54;;;;;;;4.93;1.85;;;;;;;26.77;47.09;99239.03;4884794;29;20025;-73
2023/07/25 08:34:20;;;;;;;6.85;1.83;;;;;;;26.76;46.98;99243.56;4884229;29;20514;-73
2023/07/25 08:36:46;;;;;;;5.57;2.10;;;;;;;26.76;46.95;99238.19;4889446;29;20365;-73
2023/07/25 08:39:11;;;;;;;4.45;1.85;;;;;;;26.75;47.04;99243.69;4898361;29;20056;-72
2023/07/25 08:41:43;;;;;;;4.43;1.70;;;;;;;26.74;47.18;99237.50;4897688;29;20096;-73
2023/07/25 08:44:12;;;;;;;5.55;2.25;;;;;;;26.73;46.74;99240.31;4888401;29;20112;-73
2023/07/25 08:46:44;;;;;;;6.82;2.00;;;;;;;26.72;46.90;99242.13;4891819;29;20031;-74
2023/07/25 08:49:15;;;;;;;6.38;1.95;;;;;;;26.71;47.03;99237.75;4891694;29;20025;-73
2023/07/25 08:51:44;;;;;;;6.72;2.20;;;;;;;26.73;47.06;99243.81;4895666;29;20028;-73
2023/07/25 08:54:10;;;;;;;7.15;2.10;;;;;;;26.73;46.71;99246.50;4894450;29;20435;-73
2023/07/25 08:56:38;;;;;;;5.93;1.83;;;;;;;26.73;47.09;99248.34;4895562;29;20024;-73
2023/07/25 08:59:05;;;;;;;6.90;2.08;;;;;;;26.72;46.76;99247.47;4894269;29;20027;-73
2023/07/25 09:01:31;;;;;;;5.75;2.00;;;;;;;26.72;47.08;99247.47;4897622;29;20025;-74
2023/07/25 09:03:58;;;;;;;6.28;2.03;;;;;;;26.71;46.63;99244.94;4893663;29;20417;-74
2023/07/25 09:06:24;;;;;;;5.68;1.92;;;;;;;26.69;47.02;99250.44;4897508;29;20057;-75
2023/07/25 09:08:50;;;;;;;4.32;1.77;;;;;;;26.72;46.87;99246.66;4897711;29;20040;-74
2023/07/25 09:11:20;;;;;;;5.38;2.08;;;;;;;26.72;47.15;99252.81;4897865;29;20400;-74
2023/07/25 09:13:45;;;;;;;6.22;2.15;;;;;;;26.74;47.05;99266.09;4897324;29;20024;-73
2023/07/25 09:16:11;;;;;;;5.47;2.05;;;;;;;26.73;46.77;99267.91;4892190;29;20031;-74
2023/07/25 09:18:36;;;;;;;7.18;2.30;;;;;;;26.74;47.04;99271.44;4895499;29;20084;-74
2023/07/25 09:21:02;;;;;;;4.13;1.77;;;;;;;26.73;47.00;99278.59;4891617;29;20551;-74
2023/07/25 09:23:28;;;;;;;5.85;2.08;;;;;;;26.72;47.01;99270.72;4897014;29;20036;-74
2023/07/25 09:26:05;;;;;;;6.03;1.90;;;;;;;26.72;46.76;99284.94;4896768;29;20017;-74
2023/07/25 09:28:31;;;;;;;4.65;1.83;;;;;;;26.72;46.83;99286.78;4879400;29;20101;-74
2023/07/25 09:30:57;;;;;;;5.68;2.03;;;;;;;26.71;46.90;99283.25;4895766;29;20025;-74
2023/07/25 09:33:27;;;;;;;4.88;1.80;;;;;;;26.71;46.96;99293.09;4897299;29;20033;-74
2023/07/25 09:35:53;;;;;;;4.97;1.77;;;;;;;26.72;46.53;99292.97;4896506;29;20028;-74
2023/07/25 09:38:19;;;;;;;5.13;1.73;;;;;;;26.72;46.83;99290.28;4896957;29;20087;-72
2023/07/25 09:40:46;;;;;;;6.65;2.22;;;;;;;26.72;46.46;99289.47;4896915;29;20032;-74
2023/07/25 09:43:28;;;;;;;6.03;1.92;;;;;;;26.71;46.52;99287.75;4897111;29;20033;-74
2023/07/25 09:45:54;;;;;;;5.60;2.17;;;;;;;26.71;46.48;99287.75;4896255;29;20029;-74
2023/07/25 09:48:21;;;;;;;6.07;2.15;;;;;;;26.73;46.89;99296.50;4887811;29;20033;-75
2023/07/25 09:50:47;;;;;;;4.93;1.90;;;;;;;26.71;45.29;99295.78;4888032;29;20568;-74
2023/07/25 09:53:16;;;;;;;6.72;2.25;;;;;;;26.69;45.55;99306.66;4894244;29;20028;-74
2023/07/25 09:55:43;;;;;;;7.22;2.03;;;;;;;26.70;45.44;99311.00;4895331;29;20487;-74
2023/07/25 09:58:08;;;;;;;8.85;2.08;;;;;;;26.69;45.06;99306.66;4887954;29;20040;-74
2023/07/25 10:00:34;;;;;;;6.85;2.10;;;;;;;26.69;44.67;99306.66;4892269;29;20497;-73
2023/07/25 10:02:59;;;;;;;6.15;2.22;;;;;;;26.69;44.45;99301.28;4891900;29;20025;-75
2023/07/25 10:05:27;;;;;;;6.78;1.77;;;;;;;26.70;44.81;99312.81;4894852;29;20017;-74
2023/07/25 10:07:53;;;;;;;6.60;2.25;;;;;;;26.67;43.88;99314.81;4888320;29;20032;-75
2023/07/25 10:10:19;;;;;;;9.45;2.55;;;;;;;26.65;44.09;99307.88;4887073;29;20051;-75
2023/07/25 10:12:45;;;;;;;10.35;2.88;;;;;;;26.65;44.58;99303.38;4888636;29;20029;-75
2023/07/25 10:15:12;;;;;;;8.70;3.05;;;;;;;26.64;44.51;99304.34;4896232;29;20088;-74
2023/07/25 10:17:38;;;;;;;8.00;2.30;;;;;;;26.66;44.23;99320.28;4888722;29;20489;-74
2023/07/25 10:20:07;;;;;;;8.65;2.45;;;;;;;26.64;44.64;99319.56;4886940;29;20050;-74
2023/07/25 10:22:42;;;;;;;6.53;2.85;;;;;;;26.65;44.17;99316.78;4893964;29;20100;-74
2023/07/25 10:25:16;;;;;;;8.60;2.33;;;;;;;26.65;44.26;99322.13;4887590;29;20041;-73
2023/07/25 10:27:42;;;;;;;7.10;1.95;;;;;;;26.65;44.23;99326.63;4889853;29;20028;-74
2023/07/25 10:30:24;;;;;;;10.77;2.65;;;;;;;26.63;44.24;99324.06;4896159;29;20517;-73
2023/07/25 10:32:53;;;;;;;9.13;2.75;;;;;;;26.64;44.45;99319.56;4896211;29;20020;-74
2023/07/25 10:35:38;;;;;;;9.27;2.45;;;;;;;26.63;44.72;99317.88;4896092;29;20525;-75
2023/07/25 10:38:08;;;;;;;10.32;3.10;;;;;;;26.63;44.77;99323.25;4895146;29;20250;-75
2023/07/25 10:40:57;;;;;;;7.72;2.95;;;;;;;26.62;44.58;99316.16;4891252;29;20119;-78
2023/07/25 10:43:27;;;;;;;9.18;2.47;;;;;;;26.62;44.68;99316.16;4897005;29;20072;-81
2023/07/25 10:45:54;;;;;;;6.95;1.77;;;;;;;26.60;44.47;99312.78;4895618;29;20442;-74
2023/07/25 10:48:34;;;;;;;5.57;1.95;;;;;;;26.60;44.86;99313.66;4897276;29;20033;-81
2023/07/25 10:51:07;;;;;;;6.68;2.30;;;;;;;26.61;44.42;99311.81;4900305;29;20037;-79
2023/07/25 10:53:33;;;;;;;6.97;1.83;;;;;;;26.61;44.95;99311.81;4899949;29;20115;-79
2023/07/25 10:56:05;;;;;;;7.45;1.90;;;;;;;26.61;44.89;99314.47;4900119;29;20124;-79
2023/07/25 10:58:31;;;;;;;7.72;2.03;;;;;;;26.62;44.42;99318.84;4899525;29;20067;-79
2023/07/25 11:00:57;;;;;;;3.78;1.50;;;;;;;26.61;45.20;99319.81;4899557;29;20043;-79
2023/07/25 11:03:41;;;;;;;6.07;1.98;;;;;;;26.63;45.16;99317.88;4898364;29;20490;-80
2023/07/25 11:06:06;;;;;;;5.40;2.03;;;;;;;26.61;45.40;99325.19;4899955;29;20032;-79
2023/07/25 11:08:42;;;;;;;5.78;1.80;;;;;;;26.59;45.23;99313.78;4899678;29;20506;-80
2023/07/25 11:11:09;;;;;;;3.67;1.40;;;;;;;26.58;45.07;99309.41;4893495;29;20033;-79
2023/07/25 11:13:42;;;;;;;4.78;1.52;;;;;;;26.57;45.30;99307.72;4899119;29;20067;-80
2023/07/25 11:16:11;;;;;;;5.30;1.75;;;;;;;26.58;45.37;99314.75;4898663;29;20025;-78
2023/07/25 11:18:48;;;;;;;3.85;1.73;;;;;;;26.59;45.59;99311.09;4894776;29;20056;-77
2023/07/25 11:21:14;;;;;;;4.95;1.88;;;;;;;26.59;45.56;99311.09;4898674;29;20033;-79
2023/07/25 11:23:39;;;;;;;5.00;1.95;;;;;;;26.58;45.35;99314.75;4899375;29;20228;-78
2023/07/25 11:26:08;;;;;;;3.58;1.50;;;;;;;26.58;45.30;99314.75;4899004;29;20033;-78
2023/07/25 11:28:37;;;;;;;4.28;1.90;;;;;;;26.57;45.53;99307.72;4899302;29;20478;-77
2023/07/25 11:31:02;;;;;;;6.15;1.77;;;;;;;26.58;45.34;99296.03;4899002;29;20067;-79
2023/07/25 11:33:37;;;;;;;3.88;1.67;;;;;;;26.58;45.46;99304.06;4899067;29;20052;-79